sensor_id;sensor_type;location;lat;lon;timestamp;P1;durP1;ratioP1;P2;durP2;ratioP2
10134;SDS011;5107;48.850;8.924;2023-12-14T00:01:17;2.77;;;1.37;;
10134;SDS011;5107;48.850;8.924;2023-12-14T00:03:42;5.27;;;1.60;;
10134;SDS011;5107;48.850;8.924;2023-12-14T00:06:10;2.83;;;1.37;;
10134;SDS011;5107;48.850;8.924;2023-12-14T00:08:36;1.30;;;1.07;;
10134;SDS011;5107;48.850;8.924;2023-12-14T00:13:30;3.00;;;1.70;;
10134;SDS011;5107;48.850;8.924;2023-12-14T00:15:58;7.37;;;3.90;;
10134;SDS011;5107;48.850;8.924;2023-12-14T00:18:24;3.37;;;2.50;;
10134;SDS011;5107;48.850;8.924;2023-12-14T00:20:50;3.83;;;1.73;;
10134;SDS011;5107;48.850;8.924;2023-12-14T00:23:16;1.97;;;1.70;;
10134;SDS011;5107;48.850;8.924;2023-12-14T00:25:41;2.40;;;1.73;;
10134;SDS011;5107;48.850;8.924;2023-12-14T00:28:07;2.10;;;1.80;;
10134;SDS011;5107;48.850;8.924;2023-12-14T00:30:32;2.03;;;1.70;;
10134;SDS011;5107;48.850;8.924;2023-12-14T00:32:58;1.90;;;1.57;;
10134;SDS011;5107;48.850;8.924;2023-12-14T00:35:23;23.63;;;13.03;;
10134;SDS011;5107;48.850;8.924;2023-12-14T00:37:48;3.40;;;2.40;;
10134;SDS011;5107;48.850;8.924;2023-12-14T00:40:14;4.67;;;2.10;;
10134;SDS011;5107;48.850;8.924;2023-12-14T00:42:39;3.33;;;2.40;;
10134;SDS011;5107;48.850;8.924;2023-12-14T00:45:04;5.33;;;2.07;;
10134;SDS011;5107;48.850;8.924;2023-12-14T00:47:30;3.27;;;2.23;;
10134;SDS011;5107;48.850;8.924;2023-12-14T00:49:55;6.40;;;2.30;;
10134;SDS011;5107;48.850;8.924;2023-12-14T00:52:21;2.43;;;2.20;;
10134;SDS011;5107;48.850;8.924;2023-12-14T00:54:46;2.70;;;2.17;;
10134;SDS011;5107;48.850;8.924;2023-12-14T00:57:11;3.13;;;1.70;;
10134;SDS011;5107;48.850;8.924;2023-12-14T00:59:37;3.67;;;2.23;;
10134;SDS011;5107;48.850;8.924;2023-12-14T01:02:02;3.03;;;1.73;;
10134;SDS011;5107;48.850;8.924;2023-12-14T01:04:27;2.53;;;1.87;;
10134;SDS011;5107;48.850;8.924;2023-12-14T01:06:53;4.27;;;2.60;;
10134;SDS011;5107;48.850;8.924;2023-12-14T01:09:18;2.00;;;1.80;;
10134;SDS011;5107;48.850;8.924;2023-12-14T01:11:44;2.90;;;1.73;;
10134;SDS011;5107;48.850;8.924;2023-12-14T01:14:09;1.93;;;1.50;;
10134;SDS011;5107;48.850;8.924;2023-12-14T01:16:35;2.50;;;1.67;;
10134;SDS011;5107;48.850;8.924;2023-12-14T01:19:00;2.17;;;1.80;;
10134;SDS011;5107;48.850;8.924;2023-12-14T01:21:26;2.10;;;1.77;;
10134;SDS011;5107;48.850;8.924;2023-12-14T01:23:51;2.10;;;1.60;;
10134;SDS011;5107;48.850;8.924;2023-12-14T01:26:17;1.57;;;1.30;;
10134;SDS011;5107;48.850;8.924;2023-12-14T01:28:43;2.37;;;1.33;;
10134;SDS011;5107;48.850;8.924;2023-12-14T01:31:09;2.63;;;1.40;;
10134;SDS011;5107;48.850;8.924;2023-12-14T01:33:34;1.90;;;1.30;;
10134;SDS011;5107;48.850;8.924;2023-12-14T01:36:00;4.20;;;1.80;;
10134;SDS011;5107;48.850;8.924;2023-12-14T01:38:26;4.10;;;1.30;;
10134;SDS011;5107;48.850;8.924;2023-12-14T01:41:03;1.57;;;1.27;;
10134;SDS011;5107;48.850;8.924;2023-12-14T01:43:28;1.83;;;1.30;;
10134;SDS011;5107;48.850;8.924;2023-12-14T01:45:54;2.27;;;1.30;;
10134;SDS011;5107;48.850;8.924;2023-12-14T01:48:19;3.40;;;1.60;;
10134;SDS011;5107;48.850;8.924;2023-12-14T01:50:45;2.03;;;1.60;;
10134;SDS011;5107;48.850;8.924;2023-12-14T01:53:13;2.00;;;1.57;;
10134;SDS011;5107;48.850;8.924;2023-12-14T01:55:39;2.50;;;1.70;;
10134;SDS011;5107;48.850;8.924;2023-12-14T01:58:04;2.97;;;1.57;;
10134;SDS011;5107;48.850;8.924;2023-12-14T02:01:04;1.83;;;1.40;;
10134;SDS011;5107;48.850;8.924;2023-12-14T02:03:43;3.43;;;1.60;;
10134;SDS011;5107;48.850;8.924;2023-12-14T02:06:10;1.90;;;1.30;;
10134;SDS011;5107;48.850;8.924;2023-12-14T02:08:35;1.50;;;1.30;;
10134;SDS011;5107;48.850;8.924;2023-12-14T02:11:00;1.30;;;1.20;;
10134;SDS011;5107;48.850;8.924;2023-12-14T02:13:26;1.43;;;1.30;;
10134;SDS011;5107;48.850;8.924;2023-12-14T02:15:51;1.40;;;1.17;;
10134;SDS011;5107;48.850;8.924;2023-12-14T02:18:18;3.20;;;1.60;;
10134;SDS011;5107;48.850;8.924;2023-12-14T02:20:44;3.20;;;1.60;;
10134;SDS011;5107;48.850;8.924;2023-12-14T02:23:09;2.13;;;1.20;;
10134;SDS011;5107;48.850;8.924;2023-12-14T02:25:34;3.13;;;1.50;;
10134;SDS011;5107;48.850;8.924;2023-12-14T02:28:00;2.47;;;1.77;;
10134;SDS011;5107;48.850;8.924;2023-12-14T02:30:25;1.73;;;1.33;;
10134;SDS011;5107;48.850;8.924;2023-12-14T02:32:51;3.00;;;1.50;;
10134;SDS011;5107;48.850;8.924;2023-12-14T02:35:16;5.07;;;1.80;;
10134;SDS011;5107;48.850;8.924;2023-12-14T02:37:43;2.30;;;1.73;;
10134;SDS011;5107;48.850;8.924;2023-12-14T02:40:09;1.57;;;1.33;;
10134;SDS011;5107;48.850;8.924;2023-12-14T02:42:36;2.63;;;1.33;;
10134;SDS011;5107;48.850;8.924;2023-12-14T02:45:02;1.50;;;1.40;;
10134;SDS011;5107;48.850;8.924;2023-12-14T02:47:28;2.33;;;1.50;;
10134;SDS011;5107;48.850;8.924;2023-12-14T02:49:54;1.73;;;1.43;;
10134;SDS011;5107;48.850;8.924;2023-12-14T02:52:20;2.63;;;1.60;;
10134;SDS011;5107;48.850;8.924;2023-12-14T02:54:55;3.10;;;1.77;;
10134;SDS011;5107;48.850;8.924;2023-12-14T02:57:20;1.57;;;1.30;;
10134;SDS011;5107;48.850;8.924;2023-12-14T02:59:46;1.90;;;1.40;;
10134;SDS011;5107;48.850;8.924;2023-12-14T03:02:14;3.10;;;1.97;;
10134;SDS011;5107;48.850;8.924;2023-12-14T03:04:43;1.70;;;1.60;;
10134;SDS011;5107;48.850;8.924;2023-12-14T03:07:09;1.50;;;1.40;;
10134;SDS011;5107;48.850;8.924;2023-12-14T03:09:34;1.93;;;1.27;;
10134;SDS011;5107;48.850;8.924;2023-12-14T03:12:00;1.37;;;1.10;;
10134;SDS011;5107;48.850;8.924;2023-12-14T03:14:26;3.40;;;1.40;;
10134;SDS011;5107;48.850;8.924;2023-12-14T03:16:57;3.17;;;1.60;;
10134;SDS011;5107;48.850;8.924;2023-12-14T03:19:26;1.30;;;1.20;;
10134;SDS011;5107;48.850;8.924;2023-12-14T03:21:54;1.90;;;1.43;;
10134;SDS011;5107;48.850;8.924;2023-12-14T03:24:20;2.43;;;1.37;;
10134;SDS011;5107;48.850;8.924;2023-12-14T03:26:46;1.87;;;1.53;;
10134;SDS011;5107;48.850;8.924;2023-12-14T03:29:16;2.03;;;1.10;;
10134;SDS011;5107;48.850;8.924;2023-12-14T03:31:42;4.27;;;1.30;;
10134;SDS011;5107;48.850;8.924;2023-12-14T03:34:09;5.13;;;1.37;;
10134;SDS011;5107;48.850;8.924;2023-12-14T03:36:35;1.73;;;1.30;;
10134;SDS011;5107;48.850;8.924;2023-12-14T03:39:00;1.43;;;1.17;;
10134;SDS011;5107;48.850;8.924;2023-12-14T03:41:26;1.23;;;1.13;;
10134;SDS011;5107;48.850;8.924;2023-12-14T03:43:51;1.90;;;1.27;;
10134;SDS011;5107;48.850;8.924;2023-12-14T03:46:17;2.33;;;1.30;;
10134;SDS011;5107;48.850;8.924;2023-12-14T03:48:42;1.50;;;1.13;;
10134;SDS011;5107;48.850;8.924;2023-12-14T03:51:10;1.00;;;1.00;;
10134;SDS011;5107;48.850;8.924;2023-12-14T03:53:36;3.47;;;1.27;;
10134;SDS011;5107;48.850;8.924;2023-12-14T03:56:01;2.03;;;1.10;;
10134;SDS011;5107;48.850;8.924;2023-12-14T03:58:29;2.00;;;1.37;;
10134;SDS011;5107;48.850;8.924;2023-12-14T04:01:02;1.47;;;1.17;;
10134;SDS011;5107;48.850;8.924;2023-12-14T04:03:28;2.13;;;1.23;;
10134;SDS011;5107;48.850;8.924;2023-12-14T04:05:58;1.57;;;1.40;;
10134;SDS011;5107;48.850;8.924;2023-12-14T04:08:24;1.30;;;1.20;;
10134;SDS011;5107;48.850;8.924;2023-12-14T04:10:49;1.43;;;1.33;;
10134;SDS011;5107;48.850;8.924;2023-12-14T04:13:15;2.87;;;1.40;;
10134;SDS011;5107;48.850;8.924;2023-12-14T04:15:41;1.30;;;1.20;;
10134;SDS011;5107;48.850;8.924;2023-12-14T04:18:07;1.50;;;1.23;;
10134;SDS011;5107;48.850;8.924;2023-12-14T04:20:33;1.47;;;1.13;;
10134;SDS011;5107;48.850;8.924;2023-12-14T04:22:59;2.70;;;1.63;;
10134;SDS011;5107;48.850;8.924;2023-12-14T04:25:24;2.57;;;1.80;;
10134;SDS011;5107;48.850;8.924;2023-12-14T04:27:49;3.73;;;1.70;;
10134;SDS011;5107;48.850;8.924;2023-12-14T04:30:15;2.30;;;1.67;;
10134;SDS011;5107;48.850;8.924;2023-12-14T04:32:41;2.00;;;1.73;;
10134;SDS011;5107;48.850;8.924;2023-12-14T04:35:06;2.53;;;1.60;;
10134;SDS011;5107;48.850;8.924;2023-12-14T04:37:32;2.57;;;1.80;;
10134;SDS011;5107;48.850;8.924;2023-12-14T04:39:59;2.73;;;1.57;;
10134;SDS011;5107;48.850;8.924;2023-12-14T04:42:24;4.60;;;1.80;;
10134;SDS011;5107;48.850;8.924;2023-12-14T04:44:50;2.10;;;1.80;;
10134;SDS011;5107;48.850;8.924;2023-12-14T04:47:15;3.30;;;1.70;;
10134;SDS011;5107;48.850;8.924;2023-12-14T04:49:41;3.00;;;1.80;;
10134;SDS011;5107;48.850;8.924;2023-12-14T04:52:07;3.57;;;1.90;;
10134;SDS011;5107;48.850;8.924;2023-12-14T04:54:33;2.63;;;2.07;;
10134;SDS011;5107;48.850;8.924;2023-12-14T04:57:00;3.30;;;2.20;;
10134;SDS011;5107;48.850;8.924;2023-12-14T04:59:25;2.63;;;2.10;;
10134;SDS011;5107;48.850;8.924;2023-12-14T05:01:51;3.17;;;2.13;;
10134;SDS011;5107;48.850;8.924;2023-12-14T05:04:16;3.80;;;2.87;;
10134;SDS011;5107;48.850;8.924;2023-12-14T05:06:50;6.83;;;4.87;;
10134;SDS011;5107;48.850;8.924;2023-12-14T05:09:15;6.00;;;4.20;;
10134;SDS011;5107;48.850;8.924;2023-12-14T05:11:41;5.13;;;3.77;;
10134;SDS011;5107;48.850;8.924;2023-12-14T05:14:07;4.30;;;3.27;;
10134;SDS011;5107;48.850;8.924;2023-12-14T05:16:35;4.63;;;3.67;;
10134;SDS011;5107;48.850;8.924;2023-12-14T05:19:00;3.20;;;2.90;;
10134;SDS011;5107;48.850;8.924;2023-12-14T05:21:26;3.43;;;2.73;;
10134;SDS011;5107;48.850;8.924;2023-12-14T05:23:54;5.77;;;2.20;;
10134;SDS011;5107;48.850;8.924;2023-12-14T05:26:19;2.50;;;1.80;;
10134;SDS011;5107;48.850;8.924;2023-12-14T05:28:45;3.50;;;2.00;;
10134;SDS011;5107;48.850;8.924;2023-12-14T05:31:10;2.17;;;2.00;;
10134;SDS011;5107;48.850;8.924;2023-12-14T05:33:38;4.23;;;2.50;;
10134;SDS011;5107;48.850;8.924;2023-12-14T05:36:05;5.10;;;2.50;;
10134;SDS011;5107;48.850;8.924;2023-12-14T05:38:34;3.40;;;2.40;;
10134;SDS011;5107;48.850;8.924;2023-12-14T05:41:00;3.37;;;2.70;;
10134;SDS011;5107;48.850;8.924;2023-12-14T05:43:25;3.33;;;2.70;;
10134;SDS011;5107;48.850;8.924;2023-12-14T05:45:51;6.70;;;5.53;;
10134;SDS011;5107;48.850;8.924;2023-12-14T05:48:16;9.30;;;6.83;;
10134;SDS011;5107;48.850;8.924;2023-12-14T05:50:41;12.13;;;7.80;;
10134;SDS011;5107;48.850;8.924;2023-12-14T05:53:07;13.33;;;8.83;;
10134;SDS011;5107;48.850;8.924;2023-12-14T05:55:32;14.77;;;10.60;;
10134;SDS011;5107;48.850;8.924;2023-12-14T05:57:57;15.93;;;10.57;;
10134;SDS011;5107;48.850;8.924;2023-12-14T06:00:26;11.57;;;8.47;;
10134;SDS011;5107;48.850;8.924;2023-12-14T06:02:51;10.83;;;8.43;;
10134;SDS011;5107;48.850;8.924;2023-12-14T06:05:17;12.20;;;8.13;;
10134;SDS011;5107;48.850;8.924;2023-12-14T06:07:42;7.93;;;5.90;;
10134;SDS011;5107;48.850;8.924;2023-12-14T06:10:09;9.70;;;7.77;;
10134;SDS011;5107;48.850;8.924;2023-12-14T06:12:35;7.23;;;6.27;;
10134;SDS011;5107;48.850;8.924;2023-12-14T06:15:00;6.93;;;5.43;;
10134;SDS011;5107;48.850;8.924;2023-12-14T06:17:26;7.17;;;5.63;;
10134;SDS011;5107;48.850;8.924;2023-12-14T06:19:52;7.03;;;5.37;;
10134;SDS011;5107;48.850;8.924;2023-12-14T06:22:17;7.33;;;5.23;;
10134;SDS011;5107;48.850;8.924;2023-12-14T06:24:43;6.40;;;4.70;;
10134;SDS011;5107;48.850;8.924;2023-12-14T06:27:08;8.27;;;5.67;;
10134;SDS011;5107;48.850;8.924;2023-12-14T06:29:33;6.43;;;5.60;;
10134;SDS011;5107;48.850;8.924;2023-12-14T06:31:59;7.07;;;6.33;;
10134;SDS011;5107;48.850;8.924;2023-12-14T06:34:24;7.40;;;6.27;;
10134;SDS011;5107;48.850;8.924;2023-12-14T06:36:50;9.53;;;7.27;;
10134;SDS011;5107;48.850;8.924;2023-12-14T06:39:15;11.17;;;8.30;;
10134;SDS011;5107;48.850;8.924;2023-12-14T06:41:41;10.67;;;8.47;;
10134;SDS011;5107;48.850;8.924;2023-12-14T06:44:06;11.33;;;7.77;;
10134;SDS011;5107;48.850;8.924;2023-12-14T06:46:34;10.33;;;7.83;;
10134;SDS011;5107;48.850;8.924;2023-12-14T06:48:59;10.77;;;7.67;;
10134;SDS011;5107;48.850;8.924;2023-12-14T06:51:25;10.57;;;7.40;;
10134;SDS011;5107;48.850;8.924;2023-12-14T06:53:50;10.23;;;8.00;;
10134;SDS011;5107;48.850;8.924;2023-12-14T06:56:16;9.50;;;7.50;;
10134;SDS011;5107;48.850;8.924;2023-12-14T06:58:42;8.93;;;7.30;;
10134;SDS011;5107;48.850;8.924;2023-12-14T07:01:12;14.43;;;8.50;;
10134;SDS011;5107;48.850;8.924;2023-12-14T07:03:42;13.33;;;9.90;;
10134;SDS011;5107;48.850;8.924;2023-12-14T07:06:12;15.73;;;11.53;;
10134;SDS011;5107;48.850;8.924;2023-12-14T07:08:38;13.53;;;10.67;;
10134;SDS011;5107;48.850;8.924;2023-12-14T07:11:04;13.80;;;9.67;;
10134;SDS011;5107;48.850;8.924;2023-12-14T07:13:30;12.67;;;9.17;;
10134;SDS011;5107;48.850;8.924;2023-12-14T07:15:55;14.10;;;10.00;;
10134;SDS011;5107;48.850;8.924;2023-12-14T07:18:20;12.80;;;9.37;;
10134;SDS011;5107;48.850;8.924;2023-12-14T07:20:46;13.10;;;10.13;;
10134;SDS011;5107;48.850;8.924;2023-12-14T07:23:11;12.10;;;9.30;;
10134;SDS011;5107;48.850;8.924;2023-12-14T07:25:36;12.33;;;10.07;;
10134;SDS011;5107;48.850;8.924;2023-12-14T07:28:02;14.77;;;10.17;;
10134;SDS011;5107;48.850;8.924;2023-12-14T07:30:27;12.77;;;9.97;;
10134;SDS011;5107;48.850;8.924;2023-12-14T07:32:53;14.47;;;9.67;;
10134;SDS011;5107;48.850;8.924;2023-12-14T07:35:18;13.10;;;9.97;;
10134;SDS011;5107;48.850;8.924;2023-12-14T07:37:44;15.23;;;10.67;;
10134;SDS011;5107;48.850;8.924;2023-12-14T07:40:09;11.07;;;8.63;;
10134;SDS011;5107;48.850;8.924;2023-12-14T07:42:35;13.23;;;8.80;;
10134;SDS011;5107;48.850;8.924;2023-12-14T07:45:01;14.33;;;10.13;;
10134;SDS011;5107;48.850;8.924;2023-12-14T07:47:29;15.90;;;11.70;;
10134;SDS011;5107;48.850;8.924;2023-12-14T07:49:54;14.47;;;10.07;;
10134;SDS011;5107;48.850;8.924;2023-12-14T07:52:20;12.73;;;10.13;;
10134;SDS011;5107;48.850;8.924;2023-12-14T07:54:46;13.53;;;10.30;;
10134;SDS011;5107;48.850;8.924;2023-12-14T07:57:11;12.47;;;10.07;;
10134;SDS011;5107;48.850;8.924;2023-12-14T07:59:37;13.90;;;10.00;;
10134;SDS011;5107;48.850;8.924;2023-12-14T08:02:05;11.50;;;9.27;;
10134;SDS011;5107;48.850;8.924;2023-12-14T08:04:34;12.33;;;9.23;;
10134;SDS011;5107;48.850;8.924;2023-12-14T08:06:59;12.97;;;9.23;;
10134;SDS011;5107;48.850;8.924;2023-12-14T08:09:25;13.50;;;10.40;;
10134;SDS011;5107;48.850;8.924;2023-12-14T08:11:50;12.70;;;8.60;;
10134;SDS011;5107;48.850;8.924;2023-12-14T08:14:17;14.07;;;10.37;;
10134;SDS011;5107;48.850;8.924;2023-12-14T08:16:46;15.17;;;10.40;;
10134;SDS011;5107;48.850;8.924;2023-12-14T08:19:11;14.77;;;10.50;;
10134;SDS011;5107;48.850;8.924;2023-12-14T08:21:36;13.17;;;9.70;;
10134;SDS011;5107;48.850;8.924;2023-12-14T08:24:02;13.07;;;10.27;;
10134;SDS011;5107;48.850;8.924;2023-12-14T08:26:37;15.37;;;9.63;;
10134;SDS011;5107;48.850;8.924;2023-12-14T08:29:05;14.53;;;9.77;;
10134;SDS011;5107;48.850;8.924;2023-12-14T08:31:30;12.13;;;9.33;;
10134;SDS011;5107;48.850;8.924;2023-12-14T08:33:58;13.13;;;9.23;;
10134;SDS011;5107;48.850;8.924;2023-12-14T08:36:28;12.83;;;9.97;;
10134;SDS011;5107;48.850;8.924;2023-12-14T08:38:53;13.23;;;9.73;;
10134;SDS011;5107;48.850;8.924;2023-12-14T08:41:19;13.57;;;10.33;;
10134;SDS011;5107;48.850;8.924;2023-12-14T08:43:44;12.97;;;9.47;;
10134;SDS011;5107;48.850;8.924;2023-12-14T08:46:10;14.63;;;10.70;;
10134;SDS011;5107;48.850;8.924;2023-12-14T08:48:35;14.10;;;10.07;;
10134;SDS011;5107;48.850;8.924;2023-12-14T08:51:01;15.60;;;10.90;;
10134;SDS011;5107;48.850;8.924;2023-12-14T08:53:32;14.77;;;10.80;;
10134;SDS011;5107;48.850;8.924;2023-12-14T08:56:18;16.23;;;12.33;;
10134;SDS011;5107;48.850;8.924;2023-12-14T08:58:43;15.23;;;10.63;;
10134;SDS011;5107;48.850;8.924;2023-12-14T09:01:11;14.83;;;10.40;;
10134;SDS011;5107;48.850;8.924;2023-12-14T09:03:36;15.53;;;10.47;;
10134;SDS011;5107;48.850;8.924;2023-12-14T09:06:05;16.87;;;10.93;;
10134;SDS011;5107;48.850;8.924;2023-12-14T09:08:42;12.17;;;9.47;;
10134;SDS011;5107;48.850;8.924;2023-12-14T09:11:08;14.33;;;9.10;;
10134;SDS011;5107;48.850;8.924;2023-12-14T09:13:43;14.63;;;10.13;;
10134;SDS011;5107;48.850;8.924;2023-12-14T09:16:08;15.80;;;10.83;;
10134;SDS011;5107;48.850;8.924;2023-12-14T09:18:33;12.20;;;9.83;;
10134;SDS011;5107;48.850;8.924;2023-12-14T09:20:59;13.43;;;9.00;;
10134;SDS011;5107;48.850;8.924;2023-12-14T09:23:25;12.37;;;9.20;;
10134;SDS011;5107;48.850;8.924;2023-12-14T09:25:50;13.37;;;8.97;;
10134;SDS011;5107;48.850;8.924;2023-12-14T09:28:16;11.90;;;8.73;;
10134;SDS011;5107;48.850;8.924;2023-12-14T09:30:41;13.20;;;8.13;;
10134;SDS011;5107;48.850;8.924;2023-12-14T09:33:07;10.37;;;7.87;;
10134;SDS011;5107;48.850;8.924;2023-12-14T09:35:33;12.53;;;8.83;;
10134;SDS011;5107;48.850;8.924;2023-12-14T09:38:01;13.10;;;8.10;;
10134;SDS011;5107;48.850;8.924;2023-12-14T09:40:27;11.70;;;8.23;;
10134;SDS011;5107;48.850;8.924;2023-12-14T09:42:52;12.07;;;8.07;;
10134;SDS011;5107;48.850;8.924;2023-12-14T09:45:20;15.70;;;8.97;;
10134;SDS011;5107;48.850;8.924;2023-12-14T09:47:49;11.60;;;8.27;;
10134;SDS011;5107;48.850;8.924;2023-12-14T09:50:14;11.00;;;7.73;;
10134;SDS011;5107;48.850;8.924;2023-12-14T09:52:41;11.03;;;8.07;;
10134;SDS011;5107;48.850;8.924;2023-12-14T09:55:10;12.77;;;8.20;;
10134;SDS011;5107;48.850;8.924;2023-12-14T09:57:39;11.40;;;8.40;;
10134;SDS011;5107;48.850;8.924;2023-12-14T10:00:04;11.70;;;8.03;;
10134;SDS011;5107;48.850;8.924;2023-12-14T10:02:35;10.73;;;8.20;;
10134;SDS011;5107;48.850;8.924;2023-12-14T10:05:00;11.47;;;7.70;;
10134;SDS011;5107;48.850;8.924;2023-12-14T10:07:26;8.70;;;6.70;;
10134;SDS011;5107;48.850;8.924;2023-12-14T10:10:12;10.97;;;6.90;;
10134;SDS011;5107;48.850;8.924;2023-12-14T10:13:01;9.13;;;6.57;;
10134;SDS011;5107;48.850;8.924;2023-12-14T10:15:26;10.77;;;5.97;;
10134;SDS011;5107;48.850;8.924;2023-12-14T10:17:52;10.50;;;6.43;;
10134;SDS011;5107;48.850;8.924;2023-12-14T10:20:22;7.03;;;5.17;;
10134;SDS011;5107;48.850;8.924;2023-12-14T10:22:48;10.37;;;6.53;;
10134;SDS011;5107;48.850;8.924;2023-12-14T10:25:14;9.53;;;6.43;;
10134;SDS011;5107;48.850;8.924;2023-12-14T10:27:40;8.70;;;6.57;;
10134;SDS011;5107;48.850;8.924;2023-12-14T10:30:08;8.43;;;6.33;;
10134;SDS011;5107;48.850;8.924;2023-12-14T10:32:37;9.63;;;6.37;;
10134;SDS011;5107;48.850;8.924;2023-12-14T10:35:02;8.23;;;6.70;;
10134;SDS011;5107;48.850;8.924;2023-12-14T10:37:28;9.03;;;6.37;;
10134;SDS011;5107;48.850;8.924;2023-12-14T10:39:54;10.00;;;6.53;;
10134;SDS011;5107;48.850;8.924;2023-12-14T10:42:20;9.10;;;6.80;;
10134;SDS011;5107;48.850;8.924;2023-12-14T10:44:48;8.70;;;6.40;;
10134;SDS011;5107;48.850;8.924;2023-12-14T10:47:16;7.53;;;6.23;;
10134;SDS011;5107;48.850;8.924;2023-12-14T10:49:45;7.57;;;6.40;;
10134;SDS011;5107;48.850;8.924;2023-12-14T10:52:15;8.43;;;6.23;;
10134;SDS011;5107;48.850;8.924;2023-12-14T10:54:42;8.87;;;6.33;;
10134;SDS011;5107;48.850;8.924;2023-12-14T10:57:09;6.43;;;5.50;;
10134;SDS011;5107;48.850;8.924;2023-12-14T10:59:34;6.37;;;5.30;;
10134;SDS011;5107;48.850;8.924;2023-12-14T11:02:00;7.33;;;6.07;;
10134;SDS011;5107;48.850;8.924;2023-12-14T11:04:53;5.23;;;4.43;;
10134;SDS011;5107;48.850;8.924;2023-12-14T11:07:42;4.03;;;2.73;;
10134;SDS011;5107;48.850;8.924;2023-12-14T11:10:36;2.63;;;2.43;;
10134;SDS011;5107;48.850;8.924;2023-12-14T11:13:07;3.87;;;2.90;;
10134;SDS011;5107;48.850;8.924;2023-12-14T11:15:38;3.10;;;2.80;;
10134;SDS011;5107;48.850;8.924;2023-12-14T11:23:14;3.03;;;2.70;;
10134;SDS011;5107;48.850;8.924;2023-12-14T11:25:47;4.93;;;3.10;;
10134;SDS011;5107;48.850;8.924;2023-12-14T11:28:13;4.10;;;2.63;;
10134;SDS011;5107;48.850;8.924;2023-12-14T11:30:39;3.07;;;2.50;;
10134;SDS011;5107;48.850;8.924;2023-12-14T11:33:05;3.83;;;2.80;;
10134;SDS011;5107;48.850;8.924;2023-12-14T11:35:30;4.17;;;2.60;;
10134;SDS011;5107;48.850;8.924;2023-12-14T11:37:56;2.60;;;2.40;;
10134;SDS011;5107;48.850;8.924;2023-12-14T11:40:27;3.70;;;3.03;;
10134;SDS011;5107;48.850;8.924;2023-12-14T11:42:59;4.97;;;3.80;;
10134;SDS011;5107;48.850;8.924;2023-12-14T11:45:24;8.30;;;4.50;;
10134;SDS011;5107;48.850;8.924;2023-12-14T11:47:51;5.37;;;4.57;;
10134;SDS011;5107;48.850;8.924;2023-12-14T11:50:16;4.03;;;2.80;;
10134;SDS011;5107;48.850;8.924;2023-12-14T11:52:41;2.20;;;2.00;;
10134;SDS011;5107;48.850;8.924;2023-12-14T11:55:09;3.30;;;2.40;;
10134;SDS011;5107;48.850;8.924;2023-12-14T11:57:38;6.60;;;4.47;;
10134;SDS011;5107;48.850;8.924;2023-12-14T12:00:04;5.67;;;4.40;;
10134;SDS011;5107;48.850;8.924;2023-12-14T12:02:31;5.40;;;3.97;;
10134;SDS011;5107;48.850;8.924;2023-12-14T12:04:57;5.47;;;4.00;;
10134;SDS011;5107;48.850;8.924;2023-12-14T12:07:23;7.10;;;4.77;;
10134;SDS011;5107;48.850;8.924;2023-12-14T12:09:48;6.50;;;4.77;;
10134;SDS011;5107;48.850;8.924;2023-12-14T12:12:13;6.13;;;5.20;;
10134;SDS011;5107;48.850;8.924;2023-12-14T12:14:39;7.33;;;5.73;;
10134;SDS011;5107;48.850;8.924;2023-12-14T12:17:05;6.53;;;4.97;;
10134;SDS011;5107;48.850;8.924;2023-12-14T12:19:35;6.30;;;5.07;;
10134;SDS011;5107;48.850;8.924;2023-12-14T12:22:01;4.70;;;3.43;;
10134;SDS011;5107;48.850;8.924;2023-12-14T12:24:27;3.97;;;2.87;;
10134;SDS011;5107;48.850;8.924;2023-12-14T12:26:53;2.50;;;2.00;;
10134;SDS011;5107;48.850;8.924;2023-12-14T12:29:19;2.00;;;1.90;;
10134;SDS011;5107;48.850;8.924;2023-12-14T12:31:44;2.47;;;2.23;;
10134;SDS011;5107;48.850;8.924;2023-12-14T12:34:10;2.83;;;2.30;;
10134;SDS011;5107;48.850;8.924;2023-12-14T12:36:36;3.37;;;2.53;;
10134;SDS011;5107;48.850;8.924;2023-12-14T12:39:01;2.70;;;2.33;;
10134;SDS011;5107;48.850;8.924;2023-12-14T12:41:28;2.93;;;2.50;;
10134;SDS011;5107;48.850;8.924;2023-12-14T12:43:53;2.90;;;2.60;;
10134;SDS011;5107;48.850;8.924;2023-12-14T12:46:19;3.27;;;2.43;;
10134;SDS011;5107;48.850;8.924;2023-12-14T12:48:44;4.73;;;2.70;;
10134;SDS011;5107;48.850;8.924;2023-12-14T12:51:11;5.67;;;2.60;;
10134;SDS011;5107;48.850;8.924;2023-12-14T12:53:37;7.20;;;3.47;;
10134;SDS011;5107;48.850;8.924;2023-12-14T12:56:02;5.43;;;2.77;;
10134;SDS011;5107;48.850;8.924;2023-12-14T12:58:28;4.50;;;3.33;;
10134;SDS011;5107;48.850;8.924;2023-12-14T13:00:53;3.57;;;3.10;;
10134;SDS011;5107;48.850;8.924;2023-12-14T13:03:19;3.93;;;2.87;;
10134;SDS011;5107;48.850;8.924;2023-12-14T13:05:44;5.87;;;3.10;;
10134;SDS011;5107;48.850;8.924;2023-12-14T13:08:09;4.07;;;3.07;;
10134;SDS011;5107;48.850;8.924;2023-12-14T13:10:35;3.47;;;2.87;;
10134;SDS011;5107;48.850;8.924;2023-12-14T13:13:02;3.80;;;2.70;;
10134;SDS011;5107;48.850;8.924;2023-12-14T13:15:32;4.20;;;2.60;;
10134;SDS011;5107;48.850;8.924;2023-12-14T13:17:57;3.47;;;2.40;;
10134;SDS011;5107;48.850;8.924;2023-12-14T13:20:23;3.37;;;2.70;;
10134;SDS011;5107;48.850;8.924;2023-12-14T13:22:49;3.20;;;2.90;;
10134;SDS011;5107;48.850;8.924;2023-12-14T13:25:15;4.10;;;3.53;;
10134;SDS011;5107;48.850;8.924;2023-12-14T13:27:40;5.57;;;4.17;;
10134;SDS011;5107;48.850;8.924;2023-12-14T13:30:06;5.27;;;3.90;;
10134;SDS011;5107;48.850;8.924;2023-12-14T13:32:33;7.60;;;5.67;;
10134;SDS011;5107;48.850;8.924;2023-12-14T13:34:58;10.47;;;7.83;;
10134;SDS011;5107;48.850;8.924;2023-12-14T13:37:23;11.00;;;8.17;;
10134;SDS011;5107;48.850;8.924;2023-12-14T13:39:49;8.87;;;6.90;;
10134;SDS011;5107;48.850;8.924;2023-12-14T13:42:15;12.00;;;9.00;;
10134;SDS011;5107;48.850;8.924;2023-12-14T13:44:41;11.43;;;8.03;;
10134;SDS011;5107;48.850;8.924;2023-12-14T13:47:06;12.53;;;8.90;;
10134;SDS011;5107;48.850;8.924;2023-12-14T13:49:32;13.13;;;8.70;;
10134;SDS011;5107;48.850;8.924;2023-12-14T13:51:58;11.03;;;8.30;;
10134;SDS011;5107;48.850;8.924;2023-12-14T13:54:23;13.40;;;8.53;;
10134;SDS011;5107;48.850;8.924;2023-12-14T13:56:48;12.03;;;8.30;;
10134;SDS011;5107;48.850;8.924;2023-12-14T13:59:14;11.27;;;8.73;;
10134;SDS011;5107;48.850;8.924;2023-12-14T14:01:39;12.00;;;8.40;;
10134;SDS011;5107;48.850;8.924;2023-12-14T14:04:04;11.97;;;8.27;;
10134;SDS011;5107;48.850;8.924;2023-12-14T14:06:30;9.83;;;7.13;;
10134;SDS011;5107;48.850;8.924;2023-12-14T14:08:55;9.37;;;6.50;;
10134;SDS011;5107;48.850;8.924;2023-12-14T14:11:21;10.10;;;7.70;;
10134;SDS011;5107;48.850;8.924;2023-12-14T14:13:47;9.90;;;6.97;;
10134;SDS011;5107;48.850;8.924;2023-12-14T14:16:13;10.20;;;6.70;;
10134;SDS011;5107;48.850;8.924;2023-12-14T14:18:38;9.50;;;7.20;;
10134;SDS011;5107;48.850;8.924;2023-12-14T14:21:04;9.97;;;7.03;;
10134;SDS011;5107;48.850;8.924;2023-12-14T14:23:32;11.37;;;7.77;;
10134;SDS011;5107;48.850;8.924;2023-12-14T14:25:58;10.20;;;7.90;;
10134;SDS011;5107;48.850;8.924;2023-12-14T14:28:23;11.03;;;8.50;;
10134;SDS011;5107;48.850;8.924;2023-12-14T14:30:49;13.27;;;8.87;;
10134;SDS011;5107;48.850;8.924;2023-12-14T14:33:14;9.93;;;7.43;;
10134;SDS011;5107;48.850;8.924;2023-12-14T14:35:46;9.93;;;7.60;;
10134;SDS011;5107;48.850;8.924;2023-12-14T14:38:12;9.30;;;6.93;;
10134;SDS011;5107;48.850;8.924;2023-12-14T14:40:39;9.90;;;7.20;;
10134;SDS011;5107;48.850;8.924;2023-12-14T14:43:05;8.20;;;6.73;;
10134;SDS011;5107;48.850;8.924;2023-12-14T14:45:30;10.67;;;7.17;;
10134;SDS011;5107;48.850;8.924;2023-12-14T14:47:56;9.10;;;6.53;;
10134;SDS011;5107;48.850;8.924;2023-12-14T14:50:21;8.57;;;6.33;;
10134;SDS011;5107;48.850;8.924;2023-12-14T14:52:46;8.97;;;6.17;;
10134;SDS011;5107;48.850;8.924;2023-12-14T14:55:13;10.23;;;6.93;;
10134;SDS011;5107;48.850;8.924;2023-12-14T14:57:38;9.77;;;7.33;;
10134;SDS011;5107;48.850;8.924;2023-12-14T15:00:04;10.33;;;7.07;;